createdAt,value
2019-06-10T11:49:31.961Z,23.3
2019-06-10T11:50:29.508Z,25.1
2019-06-10T11:51:27.821Z,23.6
2019-06-10T11:52:25.411Z,21.7
2019-06-10T11:53:23.729Z,19.0
2019-06-10T11:54:23.996Z,20.6
2019-06-10T11:55:23.078Z,20.2
2019-06-10T11:56:18.824Z,21.8
2019-06-10T11:57:16.409Z,20.5
2019-06-10T11:58:13.975Z,21.2
2019-06-10T11:59:13.301Z,23.0
2019-06-10T12:00:16.639Z,21.6
2019-06-10T12:01:08.436Z,26.1
2019-06-10T12:02:06.764Z,21.9
2019-06-10T12:03:04.472Z,22.4
2019-06-10T12:04:04.123Z,23.1
2019-06-10T12:05:03.292Z,23.2
2019-06-10T12:06:01.103Z,23.3
2019-06-10T12:06:57.069Z,19.7
2019-06-10T12:07:58.262Z,20.8
2019-06-10T12:08:57.333Z,21.2
2019-06-10T12:09:51.534Z,21.8
2019-06-10T12:10:49.039Z,23.6
2019-06-10T12:11:46.199Z,20.2
2019-06-10T12:12:43.750Z,23.5
2019-06-10T12:13:42.787Z,19.1
2019-06-10T12:14:39.813Z,21.1
2019-06-10T12:16:15.748Z,21.6
2019-06-10T12:17:17.622Z,19.8
2019-06-10T12:17:42.919Z,21.1
2019-06-10T12:18:33.232Z,20.1
2019-06-10T12:19:29.432Z,20.6
2019-06-10T12:20:28.492Z,17.3
2019-06-10T12:21:25.354Z,20.6
2019-06-10T12:22:23.727Z,22.2
2019-06-10T12:23:22.276Z,19.3
2019-06-10T12:24:22.906Z,17.5
2019-06-10T12:25:31.583Z,19.9
2019-06-10T12:26:15.664Z,18.0
2019-06-10T12:27:14.100Z,18.6
2019-06-10T12:28:12.942Z,20.8
2019-06-10T12:29:09.311Z,19.5
2019-06-10T12:30:07.737Z,19.6
2019-06-10T12:31:07.087Z,19.1
2019-06-10T12:32:07.197Z,22.4
2019-06-10T12:33:04.949Z,18.8
2019-06-10T12:34:00.887Z,22.6
2019-06-10T12:34:57.895Z,15.8
2019-06-10T12:35:58.552Z,19.7
2019-06-10T12:36:56.273Z,16.3
2019-06-10T12:37:51.931Z,18.1
2019-06-10T12:38:47.787Z,17.6
2019-06-10T12:39:45.400Z,18.4
2019-06-10T12:40:43.860Z,16.6
2019-06-10T12:41:43.095Z,19.6
2019-06-10T12:42:41.590Z,17.5
2019-06-10T12:43:39.552Z,18.2
2019-06-10T12:44:37.155Z,18.7
2019-06-10T12:45:34.717Z,20.5
2019-06-10T12:46:33.036Z,20.4
2019-06-10T12:47:33.175Z,18.9
2019-06-10T12:48:29.713Z,20.2
2019-06-10T12:49:27.312Z,15.7
2019-06-10T12:50:24.932Z,17.4
2019-06-10T12:51:24.001Z,15.4
2019-06-10T12:52:22.968Z,17.6
2019-06-10T12:53:19.930Z,13.7
2019-06-10T12:54:18.325Z,13.8
2019-06-10T12:55:16.004Z,12.4
2019-06-10T12:56:15.196Z,10.6
2019-06-10T12:57:16.235Z,11.5
2019-06-10T12:58:10.692Z,11.1
2019-06-10T12:59:13.282Z,12.9
2019-06-10T13:00:19.187Z,10.3
2019-06-10T13:01:08.007Z,13.2
2019-06-10T13:02:15.283Z,14.2
2019-06-10T13:03:05.423Z,11.0
2019-06-10T13:04:05.379Z,12.0
2019-06-10T13:04:59.757Z,12.3
2019-06-10T13:05:57.853Z,12.1
2019-06-10T13:06:55.853Z,12.1
2019-06-10T13:07:53.583Z,16.4
2019-06-10T13:08:53.110Z,10.8
2019-06-10T13:09:52.436Z,9.6
2019-06-10T13:10:53.030Z,10.4
2019-06-10T13:11:49.124Z,11.6
2019-06-10T13:12:48.888Z,11.4
2019-06-10T13:13:46.381Z,13.4
2019-06-10T13:14:43.994Z,10.7
2019-06-10T13:15:43.531Z,15.3
2019-06-10T13:16:41.121Z,12.5
2019-06-10T13:17:37.918Z,11.9
2019-06-10T13:18:36.589Z,9.7
2019-06-10T13:19:34.955Z,11.1
2019-06-10T13:20:32.766Z,10.2
2019-06-10T13:21:32.954Z,13.3
2019-06-10T13:22:32.482Z,12.1
2019-06-10T13:23:31.881Z,10.7
2019-06-10T13:24:26.118Z,14.0
2019-06-10T13:25:23.878Z,10.2
2019-06-10T13:26:23.202Z,9.9
2019-06-10T13:27:19.948Z,9.4
2019-06-10T13:28:17.561Z,11.6
2019-06-10T13:29:17.740Z,9.3
2019-06-10T13:30:14.292Z,10.7
2019-06-10T13:31:12.085Z,11.5
2019-06-10T13:32:10.841Z,12.2
2019-06-10T13:33:10.940Z,9.5
2019-06-10T13:34:10.899Z,11.5
2019-06-10T13:35:06.387Z,10.3
2019-06-10T13:36:05.439Z,10.1
2019-06-10T13:37:03.868Z,10.2
2019-06-10T13:38:03.681Z,10.1
2019-06-10T13:39:01.726Z,11.2
2019-06-10T13:39:59.371Z,10.5
2019-06-10T13:40:55.700Z,10.7
2019-06-10T13:41:55.124Z,9.8
2019-06-10T13:42:52.919Z,9.4
2019-06-10T13:43:52.682Z,12.2
2019-06-10T13:44:48.985Z,10.4
2019-06-10T13:45:48.043Z,13.4
2019-06-10T13:46:53.221Z,9.6
2019-06-10T13:47:52.672Z,11.8
2019-06-10T13:48:48.978Z,11.0
2019-06-10T13:49:46.562Z,8.5
2019-06-10T13:50:44.108Z,9.5
2019-06-10T13:51:43.759Z,11.2
2019-06-10T13:52:42.490Z,9.2
2019-06-10T13:53:39.022Z,8.5
2019-06-10T13:54:37.018Z,10.5
2019-06-10T13:55:35.411Z,9.8
2019-06-10T13:56:46.178Z,10.2
2019-06-10T13:57:53.234Z,8.5
2019-06-10T13:58:53.976Z,8.9
2019-06-10T13:59:52.313Z,11.3
2019-06-10T14:00:53.497Z,9.8
2019-06-10T14:01:48.450Z,9.5
2019-06-10T14:02:46.018Z,8.4
2019-06-10T14:03:44.396Z,9.0
2019-06-10T14:04:42.447Z,9.2
2019-06-10T14:05:44.734Z,8.8
2019-06-10T14:06:49.375Z,8.4
2019-06-10T14:07:35.698Z,9.8
2019-06-10T14:08:34.117Z,7.7
2019-06-10T14:09:33.015Z,8.8
2019-06-10T14:10:32.529Z,9.7
2019-06-10T14:11:30.157Z,12.2
2019-06-10T14:12:26.962Z,8.3
2019-06-10T14:13:24.596Z,8.6
2019-06-10T14:14:23.034Z,9.4
2019-06-10T14:15:22.658Z,8.5
2019-06-10T14:16:19.702Z,11.4
2019-06-10T14:17:19.447Z,10.5
2019-06-10T14:18:15.635Z,8.0
2019-06-10T14:19:16.298Z,8.9
2019-06-10T14:20:15.289Z,9.0
2019-06-10T14:21:11.640Z,8.6
2019-06-10T14:22:09.578Z,11.5
2019-06-10T14:23:05.848Z,8.8
2019-06-10T14:24:04.389Z,9.4
2019-06-10T14:25:06.035Z,9.5
2019-06-10T14:26:04.152Z,8.8
2019-06-10T14:26:59.476Z,7.5
2019-06-10T14:27:57.024Z,7.7
2019-06-10T14:28:55.417Z,8.1
2019-06-10T14:29:53.004Z,9.5
2019-06-10T14:30:53.871Z,7.9
2019-06-10T14:31:53.056Z,8.1
2019-06-10T14:32:47.847Z,10.6
2019-06-10T14:33:45.534Z,8.8
2019-06-10T14:34:43.111Z,9.5
2019-06-10T14:35:42.879Z,10.2
2019-06-10T14:36:38.871Z,8.2
2019-06-10T14:37:39.222Z,7.9
2019-06-10T14:38:36.040Z,9.2
2019-06-10T14:39:33.606Z,8.6
2019-06-10T14:40:32.482Z,8.4
2019-06-10T14:41:32.679Z,8.6
2019-06-10T14:42:32.196Z,8.2
2019-06-10T14:43:28.471Z,8.9
2019-06-10T14:44:28.751Z,10.7
2019-06-10T14:45:26.333Z,10.7
2019-06-10T14:46:23.934Z,10.3
2019-06-10T14:47:23.013Z,7.7
2019-06-10T14:48:19.480Z,9.3
2019-06-10T14:49:17.124Z,9.2
2019-06-10T14:50:17.239Z,7.4
2019-06-10T14:51:15.763Z,7.4
2019-06-10T14:52:13.907Z,8.8
2019-06-10T14:53:09.455Z,8.5
2019-06-10T14:54:07.282Z,9.9
2019-06-10T14:55:05.585Z,8.6
2019-06-10T14:56:03.917Z,8.5
2019-06-10T14:57:02.732Z,7.9
2019-06-10T14:58:02.623Z,8.2
2019-06-10T14:58:58.711Z,6.9
2019-06-10T14:59:57.199Z,7.8
2019-06-10T15:00:55.897Z,10.3
2019-06-10T15:01:53.689Z,9.5
2019-06-10T15:02:54.111Z,7.9
2019-06-10T15:03:52.309Z,10.3
2019-06-10T15:04:50.104Z,10.3
2019-06-10T15:05:47.980Z,13.1
2019-06-10T15:06:47.348Z,8.7
2019-06-10T15:07:47.675Z,10.6
2019-06-10T15:08:46.096Z,9.3
2019-06-10T15:09:43.661Z,7.7
2019-06-10T15:10:43.028Z,7.8
2019-06-10T15:11:38.940Z,9.0
2019-06-10T15:12:37.315Z,7.9
2019-06-10T15:13:34.923Z,9.7
2019-06-10T15:14:32.517Z,8.4
2019-06-10T15:15:33.026Z,8.1
2019-06-10T15:16:29.210Z,9.4
2019-06-10T15:17:26.826Z,8.2
2019-06-10T15:18:25.194Z,7.1
2019-06-10T15:19:28.630Z,9.1
2019-06-10T15:20:22.666Z,8.0
2019-06-10T15:21:19.442Z,8.3
2019-06-10T15:22:17.362Z,8.3
2019-06-10T15:23:17.024Z,6.9
2019-06-10T15:24:12.769Z,6.9
2019-06-10T15:25:11.585Z,8.6
2019-06-10T15:26:08.034Z,8.6
2019-06-10T15:27:12.690Z,8.9
2019-06-10T15:28:06.055Z,10.4
2019-06-10T15:29:04.634Z,8.4
2019-06-10T15:30:11.657Z,7.1
2019-06-10T15:31:02.981Z,8.4
2019-06-10T15:32:10.645Z,9.5
2019-06-10T15:32:59.104Z,8.9
2019-06-10T15:33:57.827Z,9.6
2019-06-10T15:34:55.508Z,6.8
2019-06-10T15:35:54.514Z,7.4
2019-06-10T15:36:53.027Z,6.5
2019-06-10T15:37:52.812Z,7.9
2019-06-10T15:38:48.873Z,8.9
2019-06-10T15:39:47.332Z,9.9
2019-06-10T15:40:45.689Z,8.1
2019-06-10T15:41:44.031Z,8.8
2019-06-10T15:42:42.693Z,8.8
2019-06-10T15:43:42.371Z,10.0
2019-06-10T15:44:48.511Z,9.7
2019-06-10T15:45:37.079Z,9.0
2019-06-10T15:46:35.626Z,7.4
2019-06-10T15:47:33.666Z,6.9
2019-06-10T15:48:32.125Z,10.6
2019-06-10T15:49:32.761Z,8.2
2019-06-10T15:50:28.360Z,7.5
2019-06-10T15:51:27.960Z,6.8
2019-06-10T15:52:27.069Z,7.3
2019-06-10T15:53:25.907Z,8.5
2019-06-10T15:54:25.447Z,6.6
2019-06-10T15:55:47.723Z,7.6
2019-06-10T15:56:31.319Z,8.6
2019-06-10T15:57:31.767Z,7.4
2019-06-10T15:58:17.811Z,8.6
2019-06-10T15:59:15.442Z,9.4
2019-06-10T16:00:18.522Z,7.3
2019-06-10T16:01:14.564Z,6.8
2019-06-10T16:02:09.288Z,7.1
2019-06-10T16:03:07.425Z,6.6
2019-06-10T16:04:05.882Z,6.0
2019-06-10T16:05:04.198Z,7.5
2019-06-10T16:06:03.366Z,8.0
2019-06-10T16:07:02.577Z,7.7
2019-06-10T16:07:59.328Z,6.2
2019-06-10T16:08:56.903Z,6.8
2019-06-10T16:09:55.835Z,6.7
2019-06-10T16:10:53.604Z,6.2
2019-06-10T16:11:53.690Z,7.7
2019-06-10T16:12:52.823Z,7.6
2019-06-10T16:13:49.665Z,7.5
2019-06-10T16:14:47.849Z,6.4
2019-06-10T16:15:46.032Z,7.4
2019-06-10T16:16:43.865Z,6.5
2019-06-10T16:17:43.295Z,6.5
2019-06-10T16:18:42.358Z,7.4
2019-06-10T16:19:39.389Z,5.9
2019-06-10T16:20:39.989Z,9.0
2019-06-10T16:21:38.873Z,6.4
2019-06-10T16:22:36.575Z,6.8
2019-06-10T16:23:35.275Z,6.1
2019-06-10T16:24:33.637Z,7.7
2019-06-10T16:25:31.324Z,6.7
2019-06-10T16:26:29.663Z,7.2
2019-06-10T16:27:43.570Z,8.6
2019-06-10T16:28:26.372Z,9.9
2019-06-10T16:29:25.127Z,6.5
2019-06-10T16:30:23.252Z,6.9
2019-06-10T16:31:25.007Z,6.7
2019-06-10T16:32:21.060Z,6.9
2019-06-10T16:33:18.624Z,6.2
2019-06-10T16:34:16.832Z,6.9
2019-06-10T16:35:16.686Z,7.6
2019-06-10T16:36:13.154Z,6.8
2019-06-10T16:37:12.871Z,7.4
2019-06-10T16:38:09.341Z,7.8
2019-06-10T16:39:07.989Z,7.1
2019-06-10T16:40:07.330Z,6.5
2019-06-10T16:41:05.087Z,6.8
2019-06-10T16:42:03.114Z,7.3
2019-06-10T16:43:01.168Z,7.2
2019-06-10T16:43:58.754Z,6.9
2019-06-10T16:44:57.133Z,7.0
2019-06-10T16:45:54.864Z,6.5
2019-06-10T16:46:52.740Z,6.6
2019-06-10T16:47:53.047Z,5.8
2019-06-10T16:48:48.588Z,5.9
2019-06-10T16:49:46.982Z,6.1
2019-06-10T16:50:47.195Z,7.3
2019-06-10T16:51:43.772Z,7.1
2019-06-10T16:52:45.890Z,6.2
2019-06-10T16:53:44.445Z,8.4
2019-06-10T16:54:44.145Z,6.2
2019-06-10T16:55:41.880Z,6.4
2019-06-10T16:56:40.298Z,6.0
2019-06-10T16:57:37.881Z,6.6
2019-06-10T16:58:35.728Z,7.4
2019-06-10T16:59:33.415Z,7.0
2019-06-10T17:00:34.718Z,7.1
2019-06-10T17:01:30.846Z,8.0
2019-06-10T17:02:28.111Z,6.5
2019-06-10T17:03:27.187Z,6.4
2019-06-10T17:04:26.214Z,6.2
2019-06-10T17:05:25.008Z,5.7
2019-06-10T17:06:22.436Z,8.2
2019-06-10T17:07:20.765Z,6.7
2019-06-10T17:08:19.836Z,8.2
2019-06-10T17:09:16.990Z,6.3
2019-06-10T17:10:17.516Z,6.4
2019-06-10T17:11:13.899Z,6.6
2019-06-10T17:12:12.633Z,6.0
2019-06-10T17:13:12.977Z,6.6
2019-06-10T17:14:12.380Z,6.1
2019-06-10T17:15:08.877Z,5.8
2019-06-10T17:16:06.443Z,7.1
2019-06-10T17:17:04.012Z,9.3
2019-06-10T17:18:02.815Z,7.9
2019-06-10T17:19:02.415Z,6.5
2019-06-10T17:19:58.782Z,8.5
2019-06-10T17:20:56.480Z,9.3
2019-06-10T17:21:55.688Z,6.1
2019-06-10T17:22:54.095Z,7.7
2019-06-10T17:23:52.488Z,6.2
2019-06-10T17:24:49.610Z,5.7
2019-06-10T17:25:47.566Z,6.6
2019-06-10T17:26:45.437Z,5.8
2019-06-10T17:27:43.876Z,6.1
2019-06-10T17:28:42.908Z,6.9
2019-06-10T17:29:42.687Z,5.7
2019-06-10T17:30:38.684Z,5.8
2019-06-10T17:31:36.268Z,7.2
2019-06-10T17:32:35.317Z,5.8
2019-06-10T17:33:35.471Z,6.1
2019-06-10T17:34:31.413Z,5.7
2019-06-10T17:35:32.472Z,6.1
2019-06-10T17:36:30.418Z,6.5
2019-06-10T17:37:24.651Z,5.9
2019-06-10T17:38:22.961Z,5.4
2019-06-10T17:39:23.371Z,6.5
2019-06-10T17:40:23.001Z,8.4
2019-06-10T17:41:18.960Z,8.1
2019-06-10T17:42:16.566Z,5.8
2019-06-10T17:43:14.937Z,6.5
2019-06-10T17:44:13.126Z,6.8
2019-06-10T17:45:12.800Z,7.2
2019-06-10T17:46:09.581Z,5.8
2019-06-10T17:47:07.306Z,5.8
2019-06-10T17:48:04.941Z,7.0
2019-06-10T17:49:02.716Z,6.5
2019-06-10T17:50:02.272Z,7.8
2019-06-10T17:50:58.673Z,5.2
2019-06-10T17:51:57.151Z,5.8
2019-06-10T17:52:55.349Z,5.6
2019-06-10T17:53:54.027Z,5.9
2019-06-10T17:54:52.542Z,6.1
2019-06-10T17:55:50.271Z,7.2
2019-06-10T17:56:48.591Z,7.1
2019-06-10T17:57:47.592Z,6.4
2019-06-10T17:58:54.294Z,5.7
2019-06-10T17:59:42.205Z,5.5
2019-06-10T18:00:42.195Z,6.4
2019-06-10T18:01:40.920Z,6.1
2019-06-10T18:02:39.364Z,7.6
2019-06-10T18:03:39.790Z,8.8
2019-06-10T18:04:35.281Z,12.5
2019-06-10T18:05:34.853Z,17.6
2019-06-10T18:06:34.770Z,13.3
2019-06-10T18:07:33.790Z,17.5
2019-06-10T18:08:29.608Z,13.5
2019-06-10T18:09:27.830Z,15.7
2019-06-10T18:10:25.585Z,16.7
2019-06-10T18:11:24.803Z,14.2
2019-06-10T18:12:22.261Z,16.0
2019-06-10T18:13:22.502Z,17.4
2019-06-10T18:14:18.677Z,19.2
2019-06-10T18:15:16.497Z,14.4
2019-06-10T18:16:14.544Z,12.8
2019-06-10T18:17:12.890Z,17.2
2019-06-10T18:18:13.010Z,12.5
2019-06-10T18:19:09.791Z,13.1
2019-06-10T18:20:08.296Z,14.1
2019-06-10T18:21:06.661Z,14.1
2019-06-10T18:22:05.999Z,14.1
2019-06-10T18:23:03.638Z,11.9
2019-06-10T18:24:06.104Z,13.8
2019-06-10T18:24:58.850Z,13.8
2019-06-10T18:25:56.515Z,12.5
2019-06-10T18:26:54.856Z,11.8
2019-06-10T18:27:52.650Z,14.3
2019-06-10T18:29:02.035Z,13.7
2019-06-10T18:29:48.675Z,12.8
2019-06-10T18:30:47.048Z,15.0
2019-06-10T18:31:45.380Z,13.4
2019-06-10T18:32:43.066Z,14.0
2019-06-10T18:33:42.542Z,15.2
2019-06-10T18:34:42.509Z,15.3
2019-06-10T18:35:38.476Z,14.8
2019-06-10T18:36:37.618Z,10.5
2019-06-10T18:37:36.371Z,13.6
2019-06-10T18:38:35.573Z,13.0
2019-06-10T18:39:32.085Z,14.4
2019-06-10T18:40:29.683Z,15.3
2019-06-10T18:41:28.056Z,12.3
2019-06-10T18:42:26.490Z,12.9
2019-06-10T18:43:23.251Z,15.4
2019-06-10T18:44:24.125Z,11.9
2019-06-10T18:45:22.381Z,11.4
2019-06-10T18:46:19.201Z,14.3
2019-06-10T18:47:17.430Z,14.4
2019-06-10T18:48:14.972Z,16.2
2019-06-10T18:49:13.297Z,13.7
2019-06-10T18:50:12.727Z,17.8
2019-06-10T18:51:09.154Z,13.0
2019-06-10T18:52:07.534Z,17.9
2019-06-10T18:53:05.096Z,16.7
2019-06-10T18:54:02.725Z,13.4
2019-06-10T18:55:03.195Z,14.3
2019-06-10T18:55:59.459Z,15.5
2019-06-10T18:56:57.039Z,17.0
2019-06-10T18:57:55.396Z,15.6
2019-06-10T18:58:53.161Z,11.7
2019-06-10T18:59:52.247Z,12.9
2019-06-10T19:00:56.982Z,18.5
2019-06-10T19:01:46.616Z,11.7
2019-06-10T19:02:44.188Z,12.2
2019-06-10T19:03:43.047Z,11.1
2019-06-10T19:04:40.226Z,18.4
2019-06-10T19:05:39.381Z,14.7
2019-06-10T19:06:38.272Z,14.0
2019-06-10T19:07:36.306Z,10.8
2019-06-10T19:08:35.566Z,14.2
2019-06-10T19:09:31.675Z,11.1
2019-06-10T19:10:29.064Z,13.6
2019-06-10T19:11:27.184Z,10.4
2019-06-10T19:12:25.635Z,11.8
2019-06-10T19:13:23.267Z,11.2
2019-06-10T19:14:21.636Z,11.6
2019-06-10T19:15:20.005Z,10.6
2019-06-10T19:16:19.181Z,12.1
2019-06-10T19:17:17.618Z,13.1
2019-06-10T19:18:15.948Z,12.0
2019-06-10T19:19:14.387Z,10.9
2019-06-10T19:20:12.942Z,12.9
2019-06-10T19:21:12.604Z,11.1
2019-06-10T19:22:09.150Z,9.7
2019-06-10T19:23:06.956Z,10.5
2019-06-10T19:24:05.308Z,14.2
2019-06-10T19:25:03.624Z,12.6
2019-06-10T19:26:02.995Z,12.0
2019-06-10T19:27:04.730Z,13.5
2019-06-10T19:27:59.058Z,13.1
2019-06-10T19:28:57.471Z,11.3
2019-06-10T19:29:54.977Z,10.2
2019-06-10T19:30:53.843Z,11.0
2019-06-10T19:31:52.606Z,11.5
2019-06-10T19:32:49.008Z,12.1
2019-06-10T19:33:47.404Z,13.9
2019-06-10T19:34:48.323Z,10.6
2019-06-10T19:35:43.834Z,13.0
2019-06-10T19:36:41.996Z,12.5
2019-06-10T19:37:40.559Z,10.0
2019-06-10T19:38:39.917Z,11.1
2019-06-10T19:39:42.370Z,12.3
2019-06-10T19:40:35.619Z,12.7
2019-06-10T19:41:36.708Z,9.4
2019-06-10T19:42:32.964Z,11.8
2019-06-10T19:43:29.517Z,9.9
2019-06-10T19:44:27.880Z,9.8
2019-06-10T19:45:26.248Z,10.3
2019-06-10T19:46:24.649Z,11.3
2019-06-10T19:47:23.504Z,11.0
2019-06-10T19:48:20.829Z,10.8
2019-06-10T19:49:19.314Z,8.8
2019-06-10T19:50:17.687Z,9.4
2019-06-10T19:51:16.672Z,9.1
2019-06-10T19:52:15.073Z,12.4
2019-06-10T19:53:13.445Z,15.9
2019-06-10T19:54:12.740Z,10.6
2019-06-10T19:55:08.688Z,11.1
2019-06-10T19:56:06.367Z,10.0
2019-06-10T19:57:04.696Z,9.7
2019-06-10T19:58:03.711Z,11.2
2019-06-10T19:58:59.980Z,10.5
2019-06-10T20:00:56.203Z,8.4
2019-06-10T20:01:54.214Z,8.9
2019-06-10T20:02:52.428Z,10.2
2019-06-10T20:03:52.088Z,11.2
2019-06-10T20:04:47.891Z,8.1
2019-06-10T20:05:46.855Z,9.7
2019-06-10T20:06:49.982Z,10.3
2019-06-10T20:07:48.426Z,10.7
2019-06-10T20:08:44.185Z,12.8
2019-06-10T20:09:42.053Z,12.8
2019-06-10T20:10:38.316Z,8.7
2019-06-10T20:11:36.483Z,9.4
2019-06-10T20:12:36.244Z,10.9
2019-06-10T20:13:34.474Z,10.1
2019-06-10T20:14:34.388Z,11.0
2019-06-10T20:15:32.832Z,12.1
2019-06-10T20:16:28.931Z,9.7
2019-06-10T20:17:26.536Z,9.8
2019-06-10T20:18:24.136Z,8.3
2019-06-10T20:19:22.420Z,9.6
2019-06-10T20:20:22.316Z,10.6
2019-06-10T20:21:18.226Z,8.3
2019-06-10T20:22:16.587Z,10.1
2019-06-10T20:23:14.921Z,9.3
2019-06-10T20:24:22.263Z,9.9
